sensor_id;sensor_type;location;lat;lon;timestamp;P1;durP1;ratioP1;P2;durP2;ratioP2
52188;SDS011;38162;45.926;13.608;2023-03-01T00:01:02;15.60;;;10.80;;
52188;SDS011;38162;45.926;13.608;2023-03-01T00:03:28;15.33;;;11.00;;
52188;SDS011;38162;45.926;13.608;2023-03-01T00:05:53;14.63;;;10.93;;
52188;SDS011;38162;45.926;13.608;2023-03-01T00:08:19;18.30;;;10.53;;
52188;SDS011;38162;45.926;13.608;2023-03-01T00:10:45;14.97;;;10.60;;
52188;SDS011;38162;45.926;13.608;2023-03-01T00:13:10;14.87;;;10.27;;
52188;SDS011;38162;45.926;13.608;2023-03-01T00:15:39;17.90;;;11.30;;
52188;SDS011;38162;45.926;13.608;2023-03-01T00:18:07;14.90;;;10.27;;
52188;SDS011;38162;45.926;13.608;2023-03-01T00:20:33;18.33;;;10.60;;
52188;SDS011;38162;45.926;13.608;2023-03-01T00:22:59;16.13;;;10.57;;
52188;SDS011;38162;45.926;13.608;2023-03-01T00:25:25;15.07;;;9.53;;
52188;SDS011;38162;45.926;13.608;2023-03-01T00:27:50;15.30;;;9.97;;
52188;SDS011;38162;45.926;13.608;2023-03-01T00:30:16;17.90;;;10.73;;
52188;SDS011;38162;45.926;13.608;2023-03-01T00:32:42;14.83;;;11.23;;
52188;SDS011;38162;45.926;13.608;2023-03-01T00:35:08;12.70;;;10.13;;
52188;SDS011;38162;45.926;13.608;2023-03-01T00:37:33;15.57;;;10.87;;
52188;SDS011;38162;45.926;13.608;2023-03-01T00:39:59;16.63;;;11.10;;
52188;SDS011;38162;45.926;13.608;2023-03-01T00:42:25;16.03;;;10.57;;
52188;SDS011;38162;45.926;13.608;2023-03-01T00:44:50;16.00;;;10.60;;
52188;SDS011;38162;45.926;13.608;2023-03-01T00:47:16;15.13;;;10.77;;
52188;SDS011;38162;45.926;13.608;2023-03-01T00:49:42;19.47;;;10.17;;
52188;SDS011;38162;45.926;13.608;2023-03-01T00:52:07;15.07;;;10.03;;
52188;SDS011;38162;45.926;13.608;2023-03-01T00:54:33;16.43;;;9.77;;
52188;SDS011;38162;45.926;13.608;2023-03-01T00:56:58;15.07;;;10.07;;
52188;SDS011;38162;45.926;13.608;2023-03-01T00:59:24;15.63;;;10.27;;
52188;SDS011;38162;45.926;13.608;2023-03-01T01:01:50;14.53;;;10.27;;
52188;SDS011;38162;45.926;13.608;2023-03-01T01:04:15;13.43;;;9.90;;
52188;SDS011;38162;45.926;13.608;2023-03-01T01:06:42;17.90;;;10.27;;
52188;SDS011;38162;45.926;13.608;2023-03-01T01:09:10;17.27;;;10.87;;
52188;SDS011;38162;45.926;13.608;2023-03-01T01:11:46;15.37;;;10.37;;
52188;SDS011;38162;45.926;13.608;2023-03-01T01:14:15;16.57;;;11.10;;
52188;SDS011;38162;45.926;13.608;2023-03-01T01:16:42;14.57;;;10.23;;
52188;SDS011;38162;45.926;13.608;2023-03-01T01:19:09;14.37;;;10.43;;
52188;SDS011;38162;45.926;13.608;2023-03-01T01:21:36;14.00;;;10.57;;
52188;SDS011;38162;45.926;13.608;2023-03-01T01:24:02;16.90;;;11.30;;
52188;SDS011;38162;45.926;13.608;2023-03-01T01:26:30;18.23;;;11.00;;
52188;SDS011;38162;45.926;13.608;2023-03-01T01:28:57;13.40;;;10.53;;
52188;SDS011;38162;45.926;13.608;2023-03-01T01:31:23;14.97;;;10.70;;
52188;SDS011;38162;45.926;13.608;2023-03-01T01:33:50;17.37;;;11.47;;
52188;SDS011;38162;45.926;13.608;2023-03-01T01:36:17;14.63;;;9.60;;
52188;SDS011;38162;45.926;13.608;2023-03-01T01:38:43;16.17;;;11.60;;
52188;SDS011;38162;45.926;13.608;2023-03-01T01:41:09;15.27;;;10.73;;
52188;SDS011;38162;45.926;13.608;2023-03-01T01:43:40;17.30;;;11.43;;
52188;SDS011;38162;45.926;13.608;2023-03-01T01:48:46;14.03;;;10.73;;
52188;SDS011;38162;45.926;13.608;2023-03-01T01:51:19;15.82;;;10.77;;
52188;SDS011;38162;45.926;13.608;2023-03-01T01:53:50;14.47;;;10.10;;
52188;SDS011;38162;45.926;13.608;2023-03-01T01:56:21;14.55;;;10.05;;
52188;SDS011;38162;45.926;13.608;2023-03-01T01:58:49;14.83;;;10.73;;
52188;SDS011;38162;45.926;13.608;2023-03-01T02:01:15;16.03;;;10.73;;
52188;SDS011;38162;45.926;13.608;2023-03-01T02:03:42;13.87;;;10.17;;
52188;SDS011;38162;45.926;13.608;2023-03-01T02:06:26;15.27;;;10.27;;
52188;SDS011;38162;45.926;13.608;2023-03-01T02:09:13;21.13;;;9.73;;
52188;SDS011;38162;45.926;13.608;2023-03-01T02:11:40;15.87;;;11.10;;
52188;SDS011;38162;45.926;13.608;2023-03-01T02:14:06;17.37;;;10.53;;
52188;SDS011;38162;45.926;13.608;2023-03-01T02:16:32;14.47;;;10.67;;
52188;SDS011;38162;45.926;13.608;2023-03-01T02:18:58;16.10;;;10.90;;
52188;SDS011;38162;45.926;13.608;2023-03-01T02:24:55;16.53;;;11.57;;
52188;SDS011;38162;45.926;13.608;2023-03-01T02:27:00;13.73;;;10.10;;
52188;SDS011;38162;45.926;13.608;2023-03-01T02:29:26;17.67;;;10.20;;
52188;SDS011;38162;45.926;13.608;2023-03-01T02:31:53;15.23;;;10.47;;
52188;SDS011;38162;45.926;13.608;2023-03-01T02:34:22;13.70;;;10.30;;
52188;SDS011;38162;45.926;13.608;2023-03-01T02:36:56;16.53;;;10.97;;
52188;SDS011;38162;45.926;13.608;2023-03-01T02:39:27;16.87;;;10.87;;
52188;SDS011;38162;45.926;13.608;2023-03-01T02:41:57;16.00;;;10.13;;
52188;SDS011;38162;45.926;13.608;2023-03-01T02:44:23;15.53;;;10.43;;
52188;SDS011;38162;45.926;13.608;2023-03-01T02:46:51;15.87;;;10.70;;
52188;SDS011;38162;45.926;13.608;2023-03-01T02:49:36;14.07;;;10.53;;
52188;SDS011;38162;45.926;13.608;2023-03-01T02:57:30;13.93;;;10.00;;
52188;SDS011;38162;45.926;13.608;2023-03-01T02:59:59;15.77;;;10.63;;
52188;SDS011;38162;45.926;13.608;2023-03-01T03:02:32;17.53;;;10.33;;
52188;SDS011;38162;45.926;13.608;2023-03-01T03:05:05;19.93;;;10.33;;
52188;SDS011;38162;45.926;13.608;2023-03-01T03:07:37;16.33;;;9.90;;
52188;SDS011;38162;45.926;13.608;2023-03-01T03:10:06;19.00;;;10.27;;
52188;SDS011;38162;45.926;13.608;2023-03-01T03:12:34;12.87;;;8.93;;
52188;SDS011;38162;45.926;13.608;2023-03-01T03:14:59;13.67;;;9.87;;
52188;SDS011;38162;45.926;13.608;2023-03-01T03:17:25;16.00;;;10.67;;
52188;SDS011;38162;45.926;13.608;2023-03-01T03:19:51;19.20;;;10.43;;
52188;SDS011;38162;45.926;13.608;2023-03-01T03:22:16;16.70;;;10.03;;
52188;SDS011;38162;45.926;13.608;2023-03-01T03:24:42;16.60;;;9.90;;
52188;SDS011;38162;45.926;13.608;2023-03-01T03:27:08;16.03;;;9.93;;
52188;SDS011;38162;45.926;13.608;2023-03-01T03:29:34;21.10;;;10.00;;
52188;SDS011;38162;45.926;13.608;2023-03-01T03:31:59;15.50;;;10.37;;
52188;SDS011;38162;45.926;13.608;2023-03-01T03:34:25;18.90;;;9.73;;
52188;SDS011;38162;45.926;13.608;2023-03-01T03:36:55;16.20;;;9.93;;
52188;SDS011;38162;45.926;13.608;2023-03-01T03:39:24;16.87;;;10.50;;
52188;SDS011;38162;45.926;13.608;2023-03-01T03:41:52;17.60;;;10.13;;
52188;SDS011;38162;45.926;13.608;2023-03-01T03:44:18;17.17;;;10.10;;
52188;SDS011;38162;45.926;13.608;2023-03-01T03:46:44;20.33;;;10.77;;
52188;SDS011;38162;45.926;13.608;2023-03-01T03:49:10;19.20;;;9.93;;
52188;SDS011;38162;45.926;13.608;2023-03-01T03:51:36;16.37;;;10.37;;
52188;SDS011;38162;45.926;13.608;2023-03-01T03:54:01;17.43;;;9.83;;
52188;SDS011;38162;45.926;13.608;2023-03-01T03:56:27;17.63;;;9.97;;
52188;SDS011;38162;45.926;13.608;2023-03-01T03:58:53;15.90;;;10.13;;
52188;SDS011;38162;45.926;13.608;2023-03-01T04:01:18;22.40;;;10.73;;
52188;SDS011;38162;45.926;13.608;2023-03-01T04:03:44;15.17;;;10.13;;
52188;SDS011;38162;45.926;13.608;2023-03-01T04:06:13;19.13;;;10.90;;
52188;SDS011;38162;45.926;13.608;2023-03-01T04:08:39;22.27;;;11.10;;
52188;SDS011;38162;45.926;13.608;2023-03-01T04:11:06;16.30;;;10.17;;
52188;SDS011;38162;45.926;13.608;2023-03-01T04:13:50;20.80;;;10.20;;
52188;SDS011;38162;45.926;13.608;2023-03-01T04:16:17;16.67;;;10.03;;
52188;SDS011;38162;45.926;13.608;2023-03-01T04:18:43;18.80;;;10.30;;
52188;SDS011;38162;45.926;13.608;2023-03-01T04:21:09;20.90;;;10.40;;
52188;SDS011;38162;45.926;13.608;2023-03-01T04:23:36;17.27;;;10.03;;
52188;SDS011;38162;45.926;13.608;2023-03-01T04:26:03;16.60;;;9.97;;
52188;SDS011;38162;45.926;13.608;2023-03-01T04:28:30;20.10;;;10.60;;
52188;SDS011;38162;45.926;13.608;2023-03-01T04:31:05;18.57;;;10.47;;
52188;SDS011;38162;45.926;13.608;2023-03-01T04:33:38;16.07;;;10.73;;
52188;SDS011;38162;45.926;13.608;2023-03-01T04:36:05;17.43;;;9.93;;
52188;SDS011;38162;45.926;13.608;2023-03-01T04:38:33;14.33;;;10.20;;
52188;SDS011;38162;45.926;13.608;2023-03-01T04:41:01;19.00;;;10.60;;
52188;SDS011;38162;45.926;13.608;2023-03-01T04:43:28;21.17;;;10.80;;
52188;SDS011;38162;45.926;13.608;2023-03-01T04:45:54;16.47;;;9.80;;
52188;SDS011;38162;45.926;13.608;2023-03-01T04:48:19;15.07;;;9.93;;
52188;SDS011;38162;45.926;13.608;2023-03-01T04:50:45;18.20;;;10.07;;
52188;SDS011;38162;45.926;13.608;2023-03-01T04:53:11;15.33;;;9.60;;
52188;SDS011;38162;45.926;13.608;2023-03-01T04:55:36;18.70;;;9.70;;
52188;SDS011;38162;45.926;13.608;2023-03-01T04:58:02;18.20;;;10.00;;
52188;SDS011;38162;45.926;13.608;2023-03-01T05:00:28;20.20;;;10.00;;
52188;SDS011;38162;45.926;13.608;2023-03-01T05:02:58;16.50;;;10.43;;
52188;SDS011;38162;45.926;13.608;2023-03-01T05:07:57;16.80;;;10.20;;
52188;SDS011;38162;45.926;13.608;2023-03-01T05:10:24;25.20;;;10.63;;
52188;SDS011;38162;45.926;13.608;2023-03-01T05:12:51;18.57;;;10.30;;
52188;SDS011;38162;45.926;13.608;2023-03-01T05:15:18;17.10;;;9.20;;
52188;SDS011;38162;45.926;13.608;2023-03-01T05:17:44;14.03;;;10.10;;
52188;SDS011;38162;45.926;13.608;2023-03-01T05:20:11;16.87;;;9.50;;
52188;SDS011;38162;45.926;13.608;2023-03-01T05:22:36;14.97;;;9.37;;
52188;SDS011;38162;45.926;13.608;2023-03-01T05:25:03;17.30;;;10.03;;
52188;SDS011;38162;45.926;13.608;2023-03-01T05:27:29;19.30;;;8.63;;
52188;SDS011;38162;45.926;13.608;2023-03-01T05:29:55;14.67;;;9.60;;
52188;SDS011;38162;45.926;13.608;2023-03-01T05:32:21;14.97;;;9.40;;
52188;SDS011;38162;45.926;13.608;2023-03-01T05:34:47;16.50;;;9.13;;
52188;SDS011;38162;45.926;13.608;2023-03-01T05:37:12;20.00;;;9.90;;
52188;SDS011;38162;45.926;13.608;2023-03-01T05:39:38;22.80;;;9.87;;
52188;SDS011;38162;45.926;13.608;2023-03-01T05:42:04;14.30;;;9.40;;
52188;SDS011;38162;45.926;13.608;2023-03-01T05:44:30;16.10;;;9.70;;
52188;SDS011;38162;45.926;13.608;2023-03-01T05:46:56;13.93;;;9.07;;
52188;SDS011;38162;45.926;13.608;2023-03-01T05:49:22;14.17;;;9.37;;
52188;SDS011;38162;45.926;13.608;2023-03-01T05:51:51;16.37;;;10.37;;
52188;SDS011;38162;45.926;13.608;2023-03-01T05:54:18;14.30;;;9.13;;
52188;SDS011;38162;45.926;13.608;2023-03-01T05:56:45;18.67;;;9.80;;
52188;SDS011;38162;45.926;13.608;2023-03-01T05:59:11;20.40;;;10.10;;
52188;SDS011;38162;45.926;13.608;2023-03-01T06:01:38;15.20;;;9.57;;
52188;SDS011;38162;45.926;13.608;2023-03-01T06:04:04;17.43;;;9.40;;
52188;SDS011;38162;45.926;13.608;2023-03-01T06:06:33;14.27;;;9.30;;
52188;SDS011;38162;45.926;13.608;2023-03-01T06:08:59;13.50;;;8.97;;
52188;SDS011;38162;45.926;13.608;2023-03-01T06:11:25;14.40;;;9.20;;
52188;SDS011;38162;45.926;13.608;2023-03-01T06:13:51;15.40;;;9.50;;
52188;SDS011;38162;45.926;13.608;2023-03-01T06:16:16;16.00;;;9.37;;
52188;SDS011;38162;45.926;13.608;2023-03-01T06:18:42;16.47;;;9.53;;
52188;SDS011;38162;45.926;13.608;2023-03-01T06:21:08;15.47;;;9.20;;
52188;SDS011;38162;45.926;13.608;2023-03-01T06:23:34;13.83;;;9.07;;
52188;SDS011;38162;45.926;13.608;2023-03-01T06:26:00;16.27;;;8.30;;
52188;SDS011;38162;45.926;13.608;2023-03-01T06:28:29;12.60;;;8.10;;
52188;SDS011;38162;45.926;13.608;2023-03-01T06:30:55;12.50;;;8.40;;
52188;SDS011;38162;45.926;13.608;2023-03-01T06:33:21;17.70;;;9.07;;
52188;SDS011;38162;45.926;13.608;2023-03-01T06:35:49;12.73;;;8.83;;
52188;SDS011;38162;45.926;13.608;2023-03-01T06:38:15;19.93;;;8.63;;
52188;SDS011;38162;45.926;13.608;2023-03-01T06:40:43;14.23;;;8.10;;
52188;SDS011;38162;45.926;13.608;2023-03-01T06:43:08;15.30;;;9.17;;
52188;SDS011;38162;45.926;13.608;2023-03-01T06:45:34;13.63;;;9.70;;
52188;SDS011;38162;45.926;13.608;2023-03-01T06:48:06;13.67;;;8.57;;
52188;SDS011;38162;45.926;13.608;2023-03-01T06:50:32;12.25;;;8.68;;
52188;SDS011;38162;45.926;13.608;2023-03-01T06:52:59;18.27;;;8.90;;
52188;SDS011;38162;45.926;13.608;2023-03-01T06:55:25;15.80;;;8.67;;
52188;SDS011;38162;45.926;13.608;2023-03-01T06:57:55;18.57;;;9.73;;
52188;SDS011;38162;45.926;13.608;2023-03-01T07:00:22;14.90;;;8.73;;
52188;SDS011;38162;45.926;13.608;2023-03-01T07:02:48;15.47;;;8.47;;
52188;SDS011;38162;45.926;13.608;2023-03-01T07:05:14;19.47;;;10.43;;
52188;SDS011;38162;45.926;13.608;2023-03-01T07:07:40;15.17;;;8.90;;
52188;SDS011;38162;45.926;13.608;2023-03-01T07:10:06;14.63;;;9.63;;
52188;SDS011;38162;45.926;13.608;2023-03-01T07:12:32;12.73;;;9.57;;
52188;SDS011;38162;45.926;13.608;2023-03-01T07:14:58;16.17;;;9.60;;
52188;SDS011;38162;45.926;13.608;2023-03-01T07:17:24;18.73;;;9.40;;
52188;SDS011;38162;45.926;13.608;2023-03-01T07:19:50;14.27;;;9.33;;
52188;SDS011;38162;45.926;13.608;2023-03-01T07:22:15;14.73;;;8.57;;
52188;SDS011;38162;45.926;13.608;2023-03-01T07:24:42;15.40;;;9.10;;
52188;SDS011;38162;45.926;13.608;2023-03-01T07:27:07;14.73;;;9.03;;
52188;SDS011;38162;45.926;13.608;2023-03-01T07:29:33;17.30;;;8.97;;
52188;SDS011;38162;45.926;13.608;2023-03-01T07:32:03;16.33;;;9.17;;
52188;SDS011;38162;45.926;13.608;2023-03-01T07:34:29;12.87;;;8.70;;
52188;SDS011;38162;45.926;13.608;2023-03-01T07:36:55;19.37;;;10.03;;
52188;SDS011;38162;45.926;13.608;2023-03-01T07:39:21;14.50;;;9.20;;
52188;SDS011;38162;45.926;13.608;2023-03-01T07:41:48;13.53;;;9.03;;
52188;SDS011;38162;45.926;13.608;2023-03-01T07:44:14;14.23;;;8.60;;
52188;SDS011;38162;45.926;13.608;2023-03-01T07:46:41;15.60;;;9.40;;
52188;SDS011;38162;45.926;13.608;2023-03-01T07:49:07;16.40;;;8.90;;
52188;SDS011;38162;45.926;13.608;2023-03-01T07:51:32;14.07;;;8.47;;
52188;SDS011;38162;45.926;13.608;2023-03-01T07:53:58;19.43;;;9.57;;
52188;SDS011;38162;45.926;13.608;2023-03-01T07:56:24;18.67;;;8.67;;
52188;SDS011;38162;45.926;13.608;2023-03-01T07:58:50;16.37;;;8.27;;
52188;SDS011;38162;45.926;13.608;2023-03-01T08:01:16;15.43;;;8.40;;
52188;SDS011;38162;45.926;13.608;2023-03-01T08:03:44;17.83;;;8.07;;
52188;SDS011;38162;45.926;13.608;2023-03-01T08:06:10;13.60;;;7.83;;
52188;SDS011;38162;45.926;13.608;2023-03-01T08:08:37;24.40;;;8.50;;
52188;SDS011;38162;45.926;13.608;2023-03-01T08:11:04;12.67;;;7.70;;
52188;SDS011;38162;45.926;13.608;2023-03-01T08:13:31;13.10;;;7.13;;
52188;SDS011;38162;45.926;13.608;2023-03-01T08:16:01;18.43;;;8.43;;
52188;SDS011;38162;45.926;13.608;2023-03-01T08:18:31;14.67;;;7.77;;
52188;SDS011;38162;45.926;13.608;2023-03-01T08:21:01;13.87;;;7.37;;
52188;SDS011;38162;45.926;13.608;2023-03-01T08:23:30;20.87;;;6.97;;
52188;SDS011;38162;45.926;13.608;2023-03-01T08:26:06;17.87;;;8.17;;
52188;SDS011;38162;45.926;13.608;2023-03-01T08:28:34;15.47;;;6.70;;
52188;SDS011;38162;45.926;13.608;2023-03-01T08:31:00;19.77;;;7.43;;
52188;SDS011;38162;45.926;13.608;2023-03-01T08:33:25;20.27;;;6.83;;
52188;SDS011;38162;45.926;13.608;2023-03-01T08:35:51;14.43;;;6.43;;
52188;SDS011;38162;45.926;13.608;2023-03-01T08:38:17;15.57;;;6.33;;
52188;SDS011;38162;45.926;13.608;2023-03-01T08:40:42;31.80;;;7.07;;
52188;SDS011;38162;45.926;13.608;2023-03-01T08:43:08;16.60;;;6.33;;
52188;SDS011;38162;45.926;13.608;2023-03-01T08:45:34;17.80;;;6.83;;
52188;SDS011;38162;45.926;13.608;2023-03-01T08:47:59;16.83;;;6.47;;
52188;SDS011;38162;45.926;13.608;2023-03-01T08:50:25;24.93;;;6.13;;
52188;SDS011;38162;45.926;13.608;2023-03-01T08:52:51;18.57;;;6.83;;
52188;SDS011;38162;45.926;13.608;2023-03-01T08:55:16;19.50;;;6.33;;
52188;SDS011;38162;45.926;13.608;2023-03-01T08:57:42;128.87;;;15.37;;
52188;SDS011;38162;45.926;13.608;2023-03-01T09:00:09;21.60;;;5.77;;
52188;SDS011;38162;45.926;13.608;2023-03-01T09:02:39;23.77;;;5.97;;
52188;SDS011;38162;45.926;13.608;2023-03-01T09:05:05;19.67;;;7.17;;
52188;SDS011;38162;45.926;13.608;2023-03-01T09:07:31;13.37;;;5.67;;
52188;SDS011;38162;45.926;13.608;2023-03-01T09:09:57;87.30;;;12.23;;
52188;SDS011;38162;45.926;13.608;2023-03-01T09:12:22;22.63;;;6.40;;
52188;SDS011;38162;45.926;13.608;2023-03-01T09:14:50;19.70;;;6.03;;
52188;SDS011;38162;45.926;13.608;2023-03-01T09:17:15;18.23;;;6.00;;
52188;SDS011;38162;45.926;13.608;2023-03-01T09:19:41;15.43;;;6.70;;
52188;SDS011;38162;45.926;13.608;2023-03-01T09:22:07;15.63;;;6.60;;
52188;SDS011;38162;45.926;13.608;2023-03-01T09:24:32;12.97;;;6.63;;
52188;SDS011;38162;45.926;13.608;2023-03-01T09:26:58;21.80;;;7.13;;
52188;SDS011;38162;45.926;13.608;2023-03-01T09:29:24;14.67;;;6.37;;
52188;SDS011;38162;45.926;13.608;2023-03-01T09:31:50;12.50;;;6.00;;
52188;SDS011;38162;45.926;13.608;2023-03-01T09:34:19;13.50;;;6.13;;
52188;SDS011;38162;45.926;13.608;2023-03-01T09:36:48;13.90;;;5.40;;
52188;SDS011;38162;45.926;13.608;2023-03-01T09:39:15;10.13;;;5.20;;
52188;SDS011;38162;45.926;13.608;2023-03-01T09:41:59;12.03;;;5.33;;
52188;SDS011;38162;45.926;13.608;2023-03-01T09:44:31;12.40;;;5.97;;
52188;SDS011;38162;45.926;13.608;2023-03-01T09:47:02;13.93;;;6.47;;
52188;SDS011;38162;45.926;13.608;2023-03-01T09:49:33;16.33;;;4.77;;
52188;SDS011;38162;45.926;13.608;2023-03-01T09:52:03;17.07;;;5.63;;
52188;SDS011;38162;45.926;13.608;2023-03-01T09:54:46;82.20;;;12.03;;
52188;SDS011;38162;45.926;13.608;2023-03-01T09:57:19;34.40;;;7.17;;
52188;SDS011;38162;45.926;13.608;2023-03-01T10:02:48;24.23;;;6.30;;
52188;SDS011;38162;45.926;13.608;2023-03-01T10:08:24;11.57;;;5.77;;
52188;SDS011;38162;45.926;13.608;2023-03-01T10:11:17;30.10;;;8.07;;
52188;SDS011;38162;45.926;13.608;2023-03-01T10:16:46;15.07;;;6.07;;
52188;SDS011;38162;45.926;13.608;2023-03-01T10:22:04;24.87;;;5.43;;
52188;SDS011;38162;45.926;13.608;2023-03-01T10:24:38;18.00;;;5.90;;
52188;SDS011;38162;45.926;13.608;2023-03-01T10:27:05;15.97;;;6.40;;
52188;SDS011;38162;45.926;13.608;2023-03-01T10:29:46;17.57;;;5.67;;
52188;SDS011;38162;45.926;13.608;2023-03-01T10:32:32;16.70;;;5.90;;
52188;SDS011;38162;45.926;13.608;2023-03-01T10:34:59;16.80;;;6.27;;
52188;SDS011;38162;45.926;13.608;2023-03-01T10:37:25;12.23;;;6.37;;
52188;SDS011;38162;45.926;13.608;2023-03-01T10:40:00;13.53;;;5.70;;
52188;SDS011;38162;45.926;13.608;2023-03-01T10:42:46;8.93;;;5.20;;
52188;SDS011;38162;45.926;13.608;2023-03-01T10:50:47;16.10;;;5.03;;
52188;SDS011;38162;45.926;13.608;2023-03-01T10:53:22;8.70;;;4.70;;
52188;SDS011;38162;45.926;13.608;2023-03-01T11:01:25;9.03;;;5.40;;
52188;SDS011;38162;45.926;13.608;2023-03-01T11:06:28;10.33;;;4.33;;
52188;SDS011;38162;45.926;13.608;2023-03-01T11:08:54;25.20;;;4.63;;
52188;SDS011;38162;45.926;13.608;2023-03-01T11:11:33;22.53;;;5.20;;
52188;SDS011;38162;45.926;13.608;2023-03-01T11:16:47;11.13;;;4.30;;
52188;SDS011;38162;45.926;13.608;2023-03-01T11:19:16;15.10;;;4.63;;
52188;SDS011;38162;45.926;13.608;2023-03-01T11:22:01;91.37;;;8.97;;
52188;SDS011;38162;45.926;13.608;2023-03-01T11:27:28;10.75;;;4.22;;
52188;SDS011;38162;45.926;13.608;2023-03-01T11:30:40;14.53;;;4.43;;
52188;SDS011;38162;45.926;13.608;2023-03-01T11:35:32;18.17;;;5.53;;
52188;SDS011;38162;45.926;13.608;2023-03-01T11:43:35;18.60;;;5.40;;
52188;SDS011;38162;45.926;13.608;2023-03-01T11:51:59;13.63;;;4.70;;
52188;SDS011;38162;45.926;13.608;2023-03-01T12:05:50;6.60;;;4.60;;
52188;SDS011;38162;45.926;13.608;2023-03-01T12:08:45;7.53;;;5.13;;
52188;SDS011;38162;45.926;13.608;2023-03-01T12:36:04;11.13;;;3.47;;
52188;SDS011;38162;45.926;13.608;2023-03-01T12:39:02;13.27;;;3.30;;
52188;SDS011;38162;45.926;13.608;2023-03-01T12:41:53;4.80;;;3.13;;
52188;SDS011;38162;45.926;13.608;2023-03-01T12:49:47;3.57;;;3.00;;
52188;SDS011;38162;45.926;13.608;2023-03-01T12:55:34;4.97;;;3.17;;
52188;SDS011;38162;45.926;13.608;2023-03-01T13:00:32;4.53;;;3.30;;
52188;SDS011;38162;45.926;13.608;2023-03-01T13:03:12;4.00;;;2.90;;
52188;SDS011;38162;45.926;13.608;2023-03-01T13:08:30;6.20;;;3.20;;
52188;SDS011;38162;45.926;13.608;2023-03-01T13:11:18;9.07;;;3.30;;
52188;SDS011;38162;45.926;13.608;2023-03-01T13:13:46;5.40;;;3.10;;
52188;SDS011;38162;45.926;13.608;2023-03-01T13:22:01;6.20;;;3.10;;
52188;SDS011;38162;45.926;13.608;2023-03-01T13:25:15;6.10;;;4.00;;
52188;SDS011;38162;45.926;13.608;2023-03-01T13:27:44;10.23;;;4.93;;
52188;SDS011;38162;45.926;13.608;2023-03-01T13:35:52;5.80;;;2.77;;
52188;SDS011;38162;45.926;13.608;2023-03-01T13:44:26;5.83;;;3.40;;
52188;SDS011;38162;45.926;13.608;2023-03-01T13:46:58;10.17;;;3.90;;
52188;SDS011;38162;45.926;13.608;2023-03-01T13:52:41;6.53;;;3.57;;
52188;SDS011;38162;45.926;13.608;2023-03-01T13:55:21;11.10;;;4.23;;
52188;SDS011;38162;45.926;13.608;2023-03-01T13:58:16;7.73;;;2.83;;
52188;SDS011;38162;45.926;13.608;2023-03-01T14:03:24;4.22;;;3.35;;
52188;SDS011;38162;45.926;13.608;2023-03-01T14:05:57;3.83;;;2.60;;
52188;SDS011;38162;45.926;13.608;2023-03-01T14:08:27;3.63;;;2.60;;
52188;SDS011;38162;45.926;13.608;2023-03-01T14:19:21;6.17;;;2.87;;
52188;SDS011;38162;45.926;13.608;2023-03-01T14:24:31;5.27;;;3.17;;
52188;SDS011;38162;45.926;13.608;2023-03-01T14:27:03;8.85;;;3.17;;
52188;SDS011;38162;45.926;13.608;2023-03-01T14:29:34;5.17;;;2.13;;
52188;SDS011;38162;45.926;13.608;2023-03-01T14:34:43;5.90;;;2.80;;
52188;SDS011;38162;45.926;13.608;2023-03-01T14:37:25;6.20;;;2.70;;
52188;SDS011;38162;45.926;13.608;2023-03-01T14:39:55;4.20;;;2.70;;
52188;SDS011;38162;45.926;13.608;2023-03-01T14:42:23;13.07;;;3.60;;
52188;SDS011;38162;45.926;13.608;2023-03-01T14:44:52;7.23;;;3.60;;
52188;SDS011;38162;45.926;13.608;2023-03-01T14:47:25;8.57;;;3.33;;
52188;SDS011;38162;45.926;13.608;2023-03-01T14:49:54;6.25;;;3.90;;
52188;SDS011;38162;45.926;13.608;2023-03-01T14:52:44;6.03;;;3.30;;
52188;SDS011;38162;45.926;13.608;2023-03-01T14:55:15;4.70;;;3.47;;
52188;SDS011;38162;45.926;13.608;2023-03-01T14:57:49;7.20;;;3.20;;
52188;SDS011;38162;45.926;13.608;2023-03-01T15:00:23;7.43;;;3.70;;
52188;SDS011;38162;45.926;13.608;2023-03-01T15:02:54;9.57;;;3.17;;
52188;SDS011;38162;45.926;13.608;2023-03-01T15:07:57;4.50;;;3.10;;
52188;SDS011;38162;45.926;13.608;2023-03-01T15:10:28;5.77;;;3.47;;
52188;SDS011;38162;45.926;13.608;2023-03-01T15:12:56;7.23;;;3.57;;
52188;SDS011;38162;45.926;13.608;2023-03-01T15:15:42;7.25;;;3.35;;
52188;SDS011;38162;45.926;13.608;2023-03-01T15:18:29;6.03;;;3.45;;
52188;SDS011;38162;45.926;13.608;2023-03-01T15:20:55;4.67;;;3.23;;
52188;SDS011;38162;45.926;13.608;2023-03-01T15:23:56;8.17;;;4.27;;
52188;SDS011;38162;45.926;13.608;2023-03-01T15:26:33;5.83;;;4.33;;
52188;SDS011;38162;45.926;13.608;2023-03-01T15:29:05;5.93;;;3.83;;
52188;SDS011;38162;45.926;13.608;2023-03-01T15:31:43;9.10;;;4.27;;
52188;SDS011;38162;45.926;13.608;2023-03-01T15:36:52;43.97;;;5.10;;
52188;SDS011;38162;45.926;13.608;2023-03-01T15:39:39;17.47;;;6.37;;
52188;SDS011;38162;45.926;13.608;2023-03-01T15:44:39;8.27;;;4.80;;
52188;SDS011;38162;45.926;13.608;2023-03-01T15:47:29;10.60;;;4.68;;
52188;SDS011;38162;45.926;13.608;2023-03-01T15:49:55;3.90;;;2.97;;
52188;SDS011;38162;45.926;13.608;2023-03-01T15:52:31;4.13;;;2.80;;
52188;SDS011;38162;45.926;13.608;2023-03-01T15:55:05;5.70;;;2.80;;
52188;SDS011;38162;45.926;13.608;2023-03-01T15:57:39;4.70;;;2.77;;
52188;SDS011;38162;45.926;13.608;2023-03-01T16:00:05;4.43;;;2.87;;
52188;SDS011;38162;45.926;13.608;2023-03-01T16:02:36;7.30;;;2.60;;
52188;SDS011;38162;45.926;13.608;2023-03-01T16:05:03;5.27;;;2.40;;
52188;SDS011;38162;45.926;13.608;2023-03-01T16:07:28;6.87;;;2.70;;
52188;SDS011;38162;45.926;13.608;2023-03-01T16:09:56;3.17;;;2.33;;
52188;SDS011;38162;45.926;13.608;2023-03-01T16:12:22;4.57;;;2.40;;
52188;SDS011;38162;45.926;13.608;2023-03-01T16:14:49;2.93;;;2.37;;
52188;SDS011;38162;45.926;13.608;2023-03-01T16:17:15;6.37;;;2.80;;
52188;SDS011;38162;45.926;13.608;2023-03-01T16:19:41;4.40;;;2.43;;
52188;SDS011;38162;45.926;13.608;2023-03-01T16:22:08;6.67;;;2.27;;
52188;SDS011;38162;45.926;13.608;2023-03-01T16:24:35;3.33;;;2.27;;
52188;SDS011;38162;45.926;13.608;2023-03-01T16:27:01;4.20;;;2.00;;
52188;SDS011;38162;45.926;13.608;2023-03-01T16:29:27;2.33;;;1.77;;
52188;SDS011;38162;45.926;13.608;2023-03-01T16:31:54;3.07;;;1.90;;
52188;SDS011;38162;45.926;13.608;2023-03-01T16:34:19;4.27;;;2.13;;
52188;SDS011;38162;45.926;13.608;2023-03-01T16:36:47;3.83;;;2.13;;
52188;SDS011;38162;45.926;13.608;2023-03-01T16:39:13;2.73;;;1.50;;
52188;SDS011;38162;45.926;13.608;2023-03-01T16:41:38;2.73;;;1.93;;
52188;SDS011;38162;45.926;13.608;2023-03-01T16:44:04;4.10;;;2.00;;
52188;SDS011;38162;45.926;13.608;2023-03-01T16:46:30;3.13;;;1.70;;
52188;SDS011;38162;45.926;13.608;2023-03-01T16:48:55;3.17;;;1.93;;
52188;SDS011;38162;45.926;13.608;2023-03-01T16:51:22;5.20;;;2.00;;
52188;SDS011;38162;45.926;13.608;2023-03-01T16:53:48;3.70;;;2.07;;
52188;SDS011;38162;45.926;13.608;2023-03-01T16:56:14;4.13;;;2.00;;
52188;SDS011;38162;45.926;13.608;2023-03-01T16:58:41;6.40;;;2.30;;
52188;SDS011;38162;45.926;13.608;2023-03-01T17:01:08;2.73;;;2.00;;
52188;SDS011;38162;45.926;13.608;2023-03-01T17:03:36;4.43;;;2.53;;
52188;SDS011;38162;45.926;13.608;2023-03-01T17:06:03;2.30;;;1.40;;